createdAt,value
2017-11-07T00:00:31.872Z,15.00
2017-11-07T00:02:59.337Z,9.80
2017-11-07T00:05:26.905Z,10.97
2017-11-07T00:07:54.376Z,15.27
2017-11-07T00:10:22.644Z,11.90
2017-11-07T00:12:50.868Z,20.47
2017-11-07T00:15:18.930Z,14.20
2017-11-07T00:17:46.455Z,13.63
2017-11-07T00:20:14.716Z,17.50
2017-11-07T00:22:43.604Z,12.37
2017-11-07T00:25:11.879Z,13.33
2017-11-07T00:27:39.350Z,23.60
2017-11-07T00:30:07.611Z,19.43
2017-11-07T00:32:35.076Z,17.57
2017-11-07T00:35:03.354Z,17.73
2017-11-07T00:37:31.672Z,14.27
2017-11-07T00:40:00.295Z,16.47
2017-11-07T00:42:27.760Z,27.07
2017-11-07T00:44:56.011Z,18.83
2017-11-07T00:47:23.494Z,12.73
2017-11-07T00:49:50.957Z,21.17
2017-11-07T00:52:20.270Z,17.30
2017-11-07T00:54:47.747Z,26.87
2017-11-07T00:57:15.723Z,16.03
2017-11-07T00:59:43.246Z,18.23
2017-11-07T01:02:11.516Z,16.83
2017-11-07T01:04:40.609Z,13.53
2017-11-07T01:07:08.886Z,21.83
2017-11-07T01:09:37.473Z,16.17
2017-11-07T01:12:05.704Z,14.63
2017-11-07T01:14:33.213Z,20.27
2017-11-07T01:17:01.454Z,11.53
2017-11-07T01:19:29.050Z,11.03
2017-11-07T01:21:56.579Z,14.43
2017-11-07T01:24:24.039Z,16.57
2017-11-07T01:26:52.321Z,15.83
2017-11-07T01:29:20.583Z,12.33
2017-11-07T01:31:48.049Z,14.80
2017-11-07T01:34:17.030Z,12.43
2017-11-07T01:36:44.517Z,13.90
2017-11-07T01:39:12.790Z,16.43
2017-11-07T01:41:41.049Z,19.63
2017-11-07T01:44:08.533Z,13.97
2017-11-07T01:46:36.072Z,13.50
2017-11-07T01:49:04.313Z,15.97
2017-11-07T01:51:31.848Z,24.00
2017-11-07T01:53:59.313Z,14.87
2017-11-07T01:56:26.916Z,15.60
2017-11-07T01:58:55.161Z,11.50
2017-11-07T02:01:22.623Z,24.87
2017-11-07T02:03:50.101Z,12.80
2017-11-07T02:06:18.368Z,13.57
2017-11-07T02:08:45.937Z,9.97
2017-11-07T02:11:14.219Z,10.27
2017-11-07T02:13:42.466Z,7.83
2017-11-07T02:16:09.939Z,10.43
2017-11-07T02:18:37.411Z,10.13
2017-11-07T02:21:05.649Z,8.47
2017-11-07T02:23:33.133Z,12.30
2017-11-07T02:26:01.364Z,14.43
2017-11-07T02:28:28.869Z,10.87
2017-11-07T02:30:57.362Z,16.87
2017-11-07T02:33:25.593Z,14.13
2017-11-07T02:35:53.076Z,13.30
2017-11-07T02:38:20.530Z,9.63
2017-11-07T02:40:47.987Z,15.30
2017-11-07T02:43:16.976Z,12.87
2017-11-07T02:45:44.451Z,18.57
2017-11-07T02:48:12.707Z,13.20
2017-11-07T02:50:40.638Z,16.60
2017-11-07T02:53:08.090Z,21.17
2017-11-07T02:55:35.599Z,12.60
2017-11-07T02:58:03.152Z,17.13
2017-11-07T03:00:30.603Z,17.20
2017-11-07T03:02:58.143Z,15.47
2017-11-07T03:05:25.615Z,12.37
2017-11-07T03:07:53.083Z,18.20
2017-11-07T03:10:22.056Z,14.87
2017-11-07T03:12:49.627Z,15.67
2017-11-07T03:15:17.104Z,13.73
2017-11-07T03:17:45.344Z,14.13
2017-11-07T03:20:12.819Z,9.83
2017-11-07T03:22:40.399Z,13.30
2017-11-07T03:25:08.660Z,11.00
2017-11-07T03:27:36.906Z,12.63
2017-11-07T03:30:04.380Z,13.93
2017-11-07T03:32:31.946Z,14.90
2017-11-07T03:34:59.411Z,9.37
2017-11-07T03:37:26.963Z,12.00
2017-11-07T03:39:55.191Z,8.70
2017-11-07T03:42:22.690Z,8.70
2017-11-07T03:44:50.583Z,10.13
2017-11-07T03:47:18.861Z,13.87
2017-11-07T03:49:47.100Z,12.03
2017-11-07T03:52:14.562Z,9.23
2017-11-07T03:54:42.019Z,9.37
2017-11-07T03:57:09.490Z,19.83
2017-11-07T03:59:37.731Z,17.50
2017-11-07T04:02:05.196Z,12.40
2017-11-07T04:04:32.711Z,10.70
2017-11-07T04:07:00.182Z,14.60
2017-11-07T04:09:27.678Z,13.70
2017-11-07T04:11:55.155Z,12.73
2017-11-07T04:14:23.380Z,20.17
2017-11-07T04:16:50.880Z,13.33
2017-11-07T04:19:19.640Z,9.70
2017-11-07T04:21:47.123Z,19.23
2017-11-07T04:24:14.587Z,11.87
2017-11-07T04:26:42.830Z,23.07
2017-11-07T04:29:10.291Z,16.80
2017-11-07T04:31:37.759Z,11.53
2017-11-07T04:34:05.277Z,10.80
2017-11-07T04:36:32.780Z,10.63
2017-11-07T04:39:00.236Z,8.50
2017-11-07T04:41:27.719Z,23.70
2017-11-07T04:43:55.964Z,18.07
2017-11-07T04:46:23.443Z,24.73
2017-11-07T04:48:51.680Z,17.00
2017-11-07T04:51:19.151Z,17.23
2017-11-07T04:53:46.707Z,12.63
2017-11-07T04:56:14.268Z,23.00
2017-11-07T04:58:41.735Z,15.90
2017-11-07T05:01:09.204Z,17.10
2017-11-07T05:03:37.448Z,10.47
2017-11-07T05:06:05.019Z,26.60
2017-11-07T05:08:34.001Z,16.80
2017-11-07T05:11:01.480Z,13.60
2017-11-07T05:13:30.711Z,20.17
2017-11-07T05:15:58.983Z,14.30
2017-11-07T05:18:26.480Z,14.30
2017-11-07T05:20:54.012Z,12.83
2017-11-07T05:23:21.571Z,19.80
2017-11-07T05:25:49.039Z,15.57
2017-11-07T05:28:16.530Z,17.10
2017-11-07T05:30:44.003Z,20.33
2017-11-07T05:33:12.264Z,18.87
2017-11-07T05:35:39.736Z,13.70
2017-11-07T05:38:07.980Z,18.87
2017-11-07T05:40:35.452Z,24.90
2017-11-07T05:43:02.919Z,14.30
2017-11-07T05:45:31.205Z,16.67
2017-11-07T05:47:59.462Z,19.63
2017-11-07T05:50:27.027Z,39.60
2017-11-07T05:52:56.284Z,45.33
2017-11-07T05:55:23.779Z,32.20
2017-11-07T05:57:51.250Z,24.50
2017-11-07T06:00:19.491Z,59.40
2017-11-07T06:02:46.972Z,36.10
2017-11-07T06:05:15.210Z,26.33
2017-11-07T06:07:42.803Z,17.10
2017-11-07T06:10:10.311Z,113.00
2017-11-07T06:12:38.892Z,17.57
2017-11-07T06:15:06.368Z,38.67
2017-11-07T06:17:33.840Z,26.47
2017-11-07T06:20:01.301Z,13.70
2017-11-07T06:22:28.776Z,16.80
2017-11-07T06:24:57.017Z,49.17
2017-11-07T06:27:24.473Z,20.40
2017-11-07T06:29:51.951Z,18.07
2017-11-07T06:32:19.454Z,21.70
2017-11-07T06:34:46.909Z,20.27
2017-11-07T06:37:14.383Z,19.77
2017-11-07T06:39:41.847Z,25.70
2017-11-07T06:42:09.317Z,33.80
2017-11-07T06:44:36.795Z,28.33
2017-11-07T06:47:04.250Z,84.37
2017-11-07T06:49:31.728Z,124.60
2017-11-07T06:51:59.993Z,99.03
2017-11-07T06:54:28.233Z,85.03
2017-11-07T06:56:56.267Z,33.30
2017-11-07T06:59:23.845Z,62.07
2017-11-07T07:01:51.307Z,94.37
2017-11-07T07:04:19.225Z,49.57
2017-11-07T07:06:47.496Z,97.43
2017-11-07T07:09:14.967Z,35.70
2017-11-07T07:11:43.209Z,50.60
2017-11-07T07:14:10.690Z,46.97
2017-11-07T07:16:39.482Z,31.47
2017-11-07T07:19:07.733Z,72.37
2017-11-07T07:21:35.230Z,33.33
2017-11-07T07:24:02.751Z,57.00
2017-11-07T07:26:30.220Z,23.00
2017-11-07T07:28:58.779Z,23.87
2017-11-07T07:31:26.246Z,31.40
2017-11-07T07:33:53.716Z,18.53
2017-11-07T07:36:21.192Z,35.33
2017-11-07T07:38:48.660Z,33.10
2017-11-07T07:41:16.131Z,37.67
2017-11-07T07:43:43.616Z,28.53
2017-11-07T07:46:11.091Z,28.47
2017-11-07T07:48:38.647Z,32.07
2017-11-07T07:51:06.209Z,21.67
2017-11-07T07:53:33.675Z,26.83
2017-11-07T07:56:01.158Z,28.83
2017-11-07T07:58:29.407Z,36.13
2017-11-07T08:00:57.679Z,45.73
2017-11-07T08:03:25.919Z,34.10
2017-11-07T08:05:53.388Z,35.67
2017-11-07T08:08:20.847Z,26.57
2017-11-07T08:10:48.419Z,46.03
2017-11-07T08:13:15.875Z,26.90
2017-11-07T08:15:43.339Z,33.33
2017-11-07T08:18:10.820Z,23.87
2017-11-07T08:20:39.072Z,56.73
2017-11-07T08:23:07.345Z,36.10
2017-11-07T08:25:34.819Z,41.10
2017-11-07T08:28:03.079Z,37.67
2017-11-07T08:30:30.535Z,43.87
2017-11-07T08:32:58.792Z,42.13
2017-11-07T08:35:26.253Z,36.00
2017-11-07T08:37:53.832Z,29.33
2017-11-07T08:40:22.084Z,28.63
2017-11-07T08:42:49.553Z,33.60
2017-11-07T08:45:17.018Z,39.77
2017-11-07T08:47:44.520Z,39.57
2017-11-07T08:50:12.028Z,37.93
2017-11-07T08:52:39.584Z,33.30
2017-11-07T08:55:07.163Z,37.23
2017-11-07T08:57:35.382Z,37.63
2017-11-07T09:00:02.875Z,27.57
2017-11-07T09:02:30.358Z,28.00
2017-11-07T09:04:58.613Z,30.10
2017-11-07T09:07:26.884Z,32.40
2017-11-07T09:09:54.470Z,27.80
2017-11-07T09:12:22.691Z,33.30
2017-11-07T09:14:50.182Z,26.83
2017-11-07T09:17:18.451Z,30.77
2017-11-07T09:19:45.912Z,33.10
2017-11-07T09:22:14.143Z,31.50
2017-11-07T09:24:41.624Z,27.30
2017-11-07T09:27:09.104Z,32.17
2017-11-07T09:29:36.672Z,32.43
2017-11-07T09:32:04.932Z,31.97
2017-11-07T09:34:33.243Z,31.07
2017-11-07T09:37:00.702Z,32.60
2017-11-07T09:39:28.163Z,33.53
2017-11-07T09:41:55.631Z,26.70
2017-11-07T09:44:23.135Z,31.20
2017-11-07T09:46:50.619Z,32.90
2017-11-07T09:49:19.375Z,31.13
2017-11-07T09:51:46.844Z,30.80
2017-11-07T09:54:14.327Z,28.67
2017-11-07T09:56:42.571Z,37.00
2017-11-07T09:59:10.027Z,32.50
2017-11-07T10:01:38.031Z,35.30
2017-11-07T10:04:05.504Z,28.33
2017-11-07T10:06:32.987Z,31.67
2017-11-07T10:09:00.464Z,30.57
2017-11-07T10:11:29.442Z,37.40
2017-11-07T10:13:56.895Z,26.60
2017-11-07T10:16:24.731Z,32.87
2017-11-07T10:18:52.207Z,34.90
2017-11-07T10:21:19.676Z,33.67
2017-11-07T10:23:47.247Z,25.33
2017-11-07T10:26:14.712Z,36.33
2017-11-07T10:28:42.167Z,39.77
2017-11-07T10:31:09.636Z,27.00
2017-11-07T10:33:37.875Z,37.70
2017-11-07T10:36:05.347Z,29.23
2017-11-07T10:38:33.619Z,23.93
2017-11-07T10:41:02.026Z,24.83
2017-11-07T10:43:30.349Z,22.20
2017-11-07T10:45:57.839Z,24.73
2017-11-07T10:48:25.311Z,22.40
2017-11-07T10:50:53.548Z,27.63
2017-11-07T10:53:21.035Z,23.73
2017-11-07T10:55:48.503Z,26.27
2017-11-07T10:58:16.743Z,25.30
2017-11-07T11:00:44.232Z,23.03
2017-11-07T11:03:12.492Z,23.23
2017-11-07T11:05:39.963Z,26.87
2017-11-07T11:08:08.215Z,25.30
2017-11-07T11:10:35.708Z,26.50
2017-11-07T11:13:03.968Z,25.00
2017-11-07T11:15:31.555Z,24.20
2017-11-07T11:17:59.012Z,21.00
2017-11-07T11:20:26.471Z,26.53
2017-11-07T11:22:53.960Z,23.80
2017-11-07T11:25:21.444Z,31.33
2017-11-07T11:27:48.911Z,22.83
2017-11-07T11:30:17.182Z,34.10
2017-11-07T11:32:45.411Z,23.57
2017-11-07T11:35:12.900Z,22.93
2017-11-07T11:37:40.368Z,18.10
2017-11-07T11:40:07.827Z,22.27
2017-11-07T11:42:35.292Z,22.13
2017-11-07T11:45:03.543Z,19.40
2017-11-07T11:47:31.010Z,20.50
2017-11-07T11:49:59.237Z,18.70
2017-11-07T11:52:26.725Z,16.87
2017-11-07T11:54:54.186Z,23.00
2017-11-07T11:57:22.371Z,19.40
2017-11-07T11:59:49.848Z,16.63
2017-11-07T12:02:18.077Z,24.90
2017-11-07T12:04:45.570Z,17.07
2017-11-07T12:07:13.124Z,15.13
2017-11-07T12:09:41.404Z,19.57
2017-11-07T12:12:08.880Z,25.00
2017-11-07T12:14:37.128Z,16.80
2017-11-07T12:17:05.416Z,27.17
2017-11-07T12:19:33.687Z,22.33
2017-11-07T12:22:01.167Z,17.03
2017-11-07T12:24:29.412Z,15.03
2017-11-07T12:26:56.894Z,19.03
2017-11-07T12:29:25.124Z,21.50
2017-11-07T12:31:52.587Z,20.00
2017-11-07T12:34:20.052Z,20.50
2017-11-07T12:36:47.624Z,19.03
2017-11-07T12:39:15.707Z,19.67
2017-11-07T12:41:43.936Z,19.70
2017-11-07T12:44:11.416Z,19.10
2017-11-07T12:46:38.876Z,17.67
2017-11-07T12:49:07.119Z,18.37
2017-11-07T12:51:57.080Z,17.97
2017-11-07T12:54:24.590Z,18.13
2017-11-07T12:56:52.060Z,19.60
2017-11-07T12:59:20.315Z,19.53
2017-11-07T13:01:47.784Z,17.17
2017-11-07T13:04:15.336Z,21.13
2017-11-07T13:06:42.908Z,17.23
2017-11-07T13:09:11.131Z,23.83
2017-11-07T13:11:39.123Z,15.07
2017-11-07T13:14:06.624Z,19.63
2017-11-07T13:16:34.179Z,28.07
2017-11-07T13:19:02.440Z,17.63
2017-11-07T13:21:29.919Z,18.20
2017-11-07T13:23:58.161Z,14.20
2017-11-07T13:26:25.732Z,20.50
2017-11-07T13:28:53.293Z,17.47
2017-11-07T13:31:22.099Z,17.60
2017-11-07T13:33:50.353Z,15.00
2017-11-07T13:36:18.687Z,20.37
2017-11-07T13:38:46.160Z,25.73
2017-11-07T13:41:14.448Z,19.07
2017-11-07T13:43:41.932Z,16.13
2017-11-07T13:46:10.162Z,19.37
2017-11-07T13:48:37.648Z,16.20
2017-11-07T13:51:05.135Z,14.37
2017-11-07T13:53:33.371Z,16.30
2017-11-07T13:56:00.839Z,20.77
2017-11-07T13:58:28.391Z,21.50
2017-11-07T14:00:55.955Z,18.70
2017-11-07T14:03:23.512Z,15.40
2017-11-07T14:05:50.989Z,13.47
2017-11-07T14:08:19.244Z,14.10
2017-11-07T14:10:46.812Z,14.20
2017-11-07T14:13:14.283Z,16.77
2017-11-07T14:15:42.508Z,19.47
2017-11-07T14:18:09.992Z,21.30
2017-11-07T14:20:37.596Z,17.20
2017-11-07T14:23:05.072Z,17.83
2017-11-07T14:25:32.539Z,14.50
2017-11-07T14:28:00.060Z,15.27
2017-11-07T14:30:27.511Z,18.20
2017-11-07T14:32:55.036Z,15.83
2017-11-07T14:35:22.593Z,18.83
2017-11-07T14:37:50.157Z,15.63
2017-11-07T14:40:18.920Z,16.63
2017-11-07T14:42:46.396Z,17.60
2017-11-07T14:45:13.872Z,15.70
2017-11-07T14:47:42.100Z,17.20
2017-11-07T14:50:09.592Z,24.70
2017-11-07T14:52:37.157Z,14.40
2017-11-07T14:55:04.667Z,21.50
2017-11-07T14:57:32.159Z,22.40
2017-11-07T14:59:59.722Z,17.27
2017-11-07T15:02:27.184Z,17.03
2017-11-07T15:04:55.425Z,17.47
2017-11-07T15:07:22.908Z,16.83
2017-11-07T15:09:51.148Z,25.03
2017-11-07T15:12:18.646Z,19.13
2017-11-07T15:14:46.106Z,19.10
2017-11-07T15:17:13.572Z,17.57
2017-11-07T15:19:41.820Z,23.53
2017-11-07T15:22:09.298Z,20.20
2017-11-07T15:24:36.751Z,22.20
2017-11-07T15:27:04.223Z,16.60
2017-11-07T15:29:31.763Z,21.23
2017-11-07T15:31:59.315Z,17.43
2017-11-07T15:34:26.796Z,23.93
2017-11-07T15:36:55.058Z,26.87
2017-11-07T15:39:22.724Z,34.07
2017-11-07T15:41:51.084Z,21.77
2017-11-07T15:44:20.064Z,21.70
2017-11-07T15:46:47.549Z,22.87
2017-11-07T15:49:15.132Z,21.83
2017-11-07T15:51:42.604Z,24.20
2017-11-07T15:54:10.076Z,18.23
2017-11-07T15:56:37.588Z,22.93
2017-11-07T15:59:05.824Z,23.80
2017-11-07T16:01:33.392Z,20.57
2017-11-07T16:04:00.873Z,23.97
2017-11-07T16:06:29.101Z,23.27
2017-11-07T16:08:56.592Z,24.93
2017-11-07T16:11:24.064Z,24.43
2017-11-07T16:13:52.287Z,29.83
2017-11-07T16:16:19.792Z,37.97
2017-11-07T16:18:47.257Z,36.60
2017-11-07T16:21:15.488Z,38.37
2017-11-07T16:23:42.967Z,32.27
2017-11-07T16:26:10.431Z,41.90
2017-11-07T16:28:37.947Z,37.27
2017-11-07T16:31:05.418Z,43.33
2017-11-07T16:33:32.901Z,40.70
2017-11-07T16:36:00.360Z,35.70
2017-11-07T16:38:27.910Z,37.60
2017-11-07T16:40:55.472Z,45.73
2017-11-07T16:43:22.946Z,40.50
2017-11-07T16:45:51.204Z,38.30
2017-11-07T16:48:19.623Z,39.03
2017-11-07T16:50:47.091Z,49.50
2017-11-07T16:53:14.600Z,46.50
2017-11-07T16:55:42.081Z,42.83
2017-11-07T16:58:10.327Z,49.07
2017-11-07T17:00:37.845Z,47.30
2017-11-07T17:03:05.347Z,45.93
2017-11-07T17:05:32.895Z,40.43
2017-11-07T17:08:00.351Z,47.80
2017-11-07T17:10:27.925Z,48.80
2017-11-07T17:12:55.402Z,40.53
2017-11-07T17:15:23.623Z,41.73
2017-11-07T17:17:51.103Z,40.43
2017-11-07T17:20:19.336Z,45.17
2017-11-07T17:22:46.835Z,52.53
2017-11-07T17:25:15.168Z,46.53
2017-11-07T17:27:42.632Z,46.97
2017-11-07T17:30:10.251Z,38.93
2017-11-07T17:32:38.488Z,41.73
2017-11-07T17:35:06.065Z,36.83
2017-11-07T17:37:33.628Z,33.50
2017-11-07T17:40:02.611Z,39.63
2017-11-07T17:42:30.072Z,32.60
2017-11-07T17:44:58.312Z,37.10
2017-11-07T17:47:25.803Z,32.63
2017-11-07T17:49:54.045Z,30.37
2017-11-07T17:52:21.510Z,42.40
2017-11-07T17:54:48.992Z,37.27
2017-11-07T17:57:16.448Z,43.70
2017-11-07T17:59:43.907Z,54.07
2017-11-07T18:02:12.155Z,45.03
2017-11-07T18:04:39.949Z,70.67
2017-11-07T18:07:07.403Z,71.83
2017-11-07T18:09:36.389Z,73.80
2017-11-07T18:12:03.860Z,93.20
2017-11-07T18:14:31.407Z,100.03
2017-11-07T18:16:59.644Z,84.70
2017-11-07T18:19:27.107Z,85.90
2017-11-07T18:21:54.601Z,89.77
2017-11-07T18:24:22.852Z,95.73
2017-11-07T18:26:50.332Z,99.13
2017-11-07T18:29:18.580Z,75.03
2017-11-07T18:31:46.061Z,88.83
2017-11-07T18:34:15.036Z,78.27
2017-11-07T18:36:42.499Z,70.23
2017-11-07T18:39:10.068Z,79.33
2017-11-07T18:41:38.298Z,74.73
2017-11-07T18:44:05.755Z,75.93
2017-11-07T18:46:33.259Z,62.27
2017-11-07T18:49:01.492Z,71.57
2017-11-07T18:51:28.960Z,77.63
2017-11-07T18:53:56.448Z,96.83
2017-11-07T18:56:24.681Z,65.50
2017-11-07T18:58:52.187Z,70.50
2017-11-07T19:01:19.749Z,103.90
2017-11-07T19:03:47.300Z,86.10
2017-11-07T19:06:14.881Z,73.10
2017-11-07T19:08:43.129Z,81.80
2017-11-07T19:11:12.122Z,79.73
2017-11-07T19:13:39.683Z,79.00
2017-11-07T19:16:08.664Z,83.43
2017-11-07T19:18:36.141Z,100.63
2017-11-07T19:21:04.371Z,91.30
2017-11-07T19:23:31.859Z,90.40
2017-11-07T19:25:59.328Z,97.40
2017-11-07T19:28:26.799Z,92.67
2017-11-07T19:30:55.059Z,83.17
2017-11-07T19:33:24.040Z,78.00
2017-11-07T19:35:51.508Z,98.07
2017-11-07T19:38:20.489Z,78.27
2017-11-07T19:40:49.475Z,106.53
2017-11-07T19:43:16.958Z,101.87
2017-11-07T19:45:45.193Z,79.23
2017-11-07T19:48:12.678Z,83.90
2017-11-07T19:50:40.911Z,82.57
2017-11-07T19:53:08.379Z,84.73
2017-11-07T19:55:35.863Z,94.43
2017-11-07T19:58:04.099Z,82.13
2017-11-07T20:00:31.559Z,88.43
2017-11-07T20:02:59.792Z,97.55
2017-11-07T20:05:28.027Z,83.43
2017-11-07T20:07:55.500Z,83.63
2017-11-07T20:10:23.729Z,75.97
2017-11-07T20:12:51.205Z,74.60
2017-11-07T20:15:18.687Z,96.90
2017-11-07T20:17:46.156Z,99.73
2017-11-07T20:20:14.420Z,122.33
2017-11-07T20:22:43.424Z,92.87
2017-11-07T20:25:11.687Z,83.10
2017-11-07T20:27:39.166Z,76.03
2017-11-07T20:30:07.437Z,107.80
2017-11-07T20:32:36.487Z,97.10
2017-11-07T20:35:03.984Z,97.40
2017-11-07T20:37:32.215Z,81.03
2017-11-07T20:39:59.723Z,87.03
2017-11-07T20:42:27.996Z,68.10
2017-11-07T20:44:56.226Z,113.17
2017-11-07T20:47:23.696Z,107.70
2017-11-07T20:49:51.612Z,100.43
2017-11-07T20:52:20.084Z,140.13
2017-11-07T20:54:48.418Z,142.87
2017-11-07T20:57:16.795Z,340.20
2017-11-07T20:59:46.808Z,102.07
2017-11-07T21:02:15.975Z,138.67
2017-11-07T21:04:43.460Z,291.33
2017-11-07T21:07:10.989Z,70.67
2017-11-07T21:09:38.571Z,126.30
2017-11-07T21:12:06.064Z,61.17
2017-11-07T21:14:33.548Z,143.30
2017-11-07T21:17:02.062Z,124.00
2017-11-07T21:19:32.134Z,143.83
2017-11-07T21:22:00.381Z,180.73
2017-11-07T21:24:27.948Z,53.23
2017-11-07T21:26:55.435Z,265.50
2017-11-07T21:29:23.676Z,171.00
2017-11-07T21:31:51.156Z,122.30
2017-11-07T21:34:22.324Z,88.03
2017-11-07T21:36:49.856Z,87.40
2017-11-07T21:39:18.084Z,204.77
2017-11-07T21:41:45.683Z,139.23
2017-11-07T21:44:14.651Z,72.93
2017-11-07T21:46:42.106Z,80.40
2017-11-07T21:49:09.586Z,74.63
2017-11-07T21:51:37.055Z,113.60
2017-11-07T21:54:04.583Z,318.40
2017-11-07T21:56:32.058Z,261.87
2017-11-07T21:58:59.579Z,133.83
2017-11-07T22:01:27.053Z,241.33
2017-11-07T22:03:54.531Z,55.07
2017-11-07T22:06:22.712Z,151.13
2017-11-07T22:08:50.936Z,57.40
2017-11-07T22:11:18.436Z,145.40
2017-11-07T22:13:45.993Z,78.90
2017-11-07T22:16:13.551Z,106.90
2017-11-07T22:18:41.795Z,82.97
2017-11-07T22:21:09.284Z,56.03
2017-11-07T22:23:41.488Z,46.33
2017-11-07T22:26:09.062Z,53.40
2017-11-07T22:28:36.527Z,73.07
2017-11-07T22:31:04.020Z,78.57
2017-11-07T22:33:31.491Z,123.80
2017-11-07T22:35:59.755Z,93.53
2017-11-07T22:38:27.231Z,129.53
2017-11-07T22:40:55.473Z,105.03
2017-11-07T22:43:22.940Z,71.23
2017-11-07T22:45:50.420Z,56.50
2017-11-07T22:48:18.659Z,51.30
2017-11-07T22:50:46.115Z,45.63
2017-11-07T22:53:13.902Z,56.23
2017-11-07T22:55:41.370Z,69.10
2017-11-07T22:58:09.608Z,117.77
2017-11-07T23:00:37.084Z,99.47
2017-11-07T23:03:05.328Z,64.53
2017-11-07T23:05:32.816Z,53.83
2017-11-07T23:08:01.216Z,57.90
2017-11-07T23:10:29.457Z,48.27
2017-11-07T23:12:58.716Z,66.67
2017-11-07T23:15:26.219Z,32.47
2017-11-07T23:17:53.686Z,46.37
2017-11-07T23:20:21.919Z,44.83
2017-11-07T23:22:49.399Z,31.53
2017-11-07T23:25:16.887Z,52.57
2017-11-07T23:27:45.119Z,50.40
2017-11-07T23:30:12.624Z,43.53
2017-11-07T23:32:40.851Z,57.27
2017-11-07T23:35:08.380Z,70.47
2017-11-07T23:37:35.856Z,45.83
2017-11-07T23:40:03.323Z,58.63
2017-11-07T23:42:31.663Z,52.30
2017-11-07T23:44:59.139Z,42.87
2017-11-07T23:47:26.640Z,53.77
2017-11-07T23:49:54.103Z,49.63
2017-11-07T23:52:22.350Z,58.30
2017-11-07T23:54:49.814Z,55.93
2017-11-07T23:57:17.613Z,40.83
2017-11-07T23:59:45.859Z,32.50
